createdAt,value
2022-10-13T00:01:11.888Z,101723.50
2022-10-13T00:03:40.931Z,101700.88
2022-10-13T00:06:11.234Z,101721.69
2022-10-13T00:08:39.741Z,101717.50
2022-10-13T00:11:11.896Z,101701.47
2022-10-13T00:13:40.291Z,101727.06
2022-10-13T00:16:10.081Z,101727.00
2022-10-13T00:18:38.642Z,101730.50
2022-10-13T00:21:09.012Z,101724.47
2022-10-13T00:23:37.842Z,101723.41
2022-10-13T00:26:07.843Z,101724.47
2022-10-13T00:28:36.121Z,101701.94
2022-10-13T00:31:04.226Z,101724.50
2022-10-13T00:33:33.582Z,101720.19
2022-10-13T00:36:01.472Z,101727.13
2022-10-13T00:38:29.295Z,101689.47
2022-10-13T00:40:58.004Z,101727.06
2022-10-13T00:43:28.029Z,101724.50
2022-10-13T00:45:56.050Z,101717.13
2022-10-13T00:48:28.032Z,101719.38
2022-10-13T00:50:59.357Z,101686.13
2022-10-13T00:53:32.723Z,101713.13
2022-10-13T00:56:01.068Z,101716.56
2022-10-13T00:58:32.952Z,101703.66
2022-10-13T01:01:01.502Z,101726.84
2022-10-13T01:03:29.543Z,101707.91
2022-10-13T01:06:02.835Z,101712.72
2022-10-13T01:08:31.674Z,101689.16
2022-10-13T01:11:12.284Z,101705.69
2022-10-13T01:13:44.113Z,101698.69
2022-10-13T01:16:20.463Z,101707.25
2022-10-13T01:18:57.989Z,101676.81
2022-10-13T01:21:34.438Z,101695.00
2022-10-13T01:24:29.700Z,101701.78
2022-10-13T01:27:47.468Z,101699.19
2022-10-13T01:30:19.173Z,101693.88
2022-10-13T01:33:08.935Z,101697.53
2022-10-13T01:35:52.192Z,101688.16
2022-10-13T01:38:28.496Z,101690.13
2022-10-13T01:41:03.549Z,101689.47
2022-10-13T01:43:37.559Z,101643.78
2022-10-13T01:46:11.954Z,101693.34
2022-10-13T01:48:41.578Z,101688.38
2022-10-13T01:51:13.556Z,101667.22
2022-10-13T01:53:43.871Z,101689.50
2022-10-13T01:56:12.135Z,101684.13
2022-10-13T01:58:40.580Z,101684.94
2022-10-13T02:01:23.345Z,101683.97
2022-10-13T02:04:00.621Z,101682.97
2022-10-13T02:06:33.985Z,101657.91
2022-10-13T02:09:07.900Z,101664.19
2022-10-13T02:11:36.012Z,101679.22
2022-10-13T02:14:10.880Z,101666.72
2022-10-13T02:16:44.291Z,101677.47
2022-10-13T02:19:15.864Z,101629.78
2022-10-13T02:21:44.334Z,101679.09
2022-10-13T02:24:13.756Z,101669.16
2022-10-13T02:26:42.775Z,101609.06
2022-10-13T02:29:12.182Z,101678.03
2022-10-13T02:31:43.006Z,101675.50
2022-10-13T02:34:11.541Z,101674.53
2022-10-13T02:36:39.810Z,101659.28
2022-10-13T02:39:09.148Z,101667.59
2022-10-13T02:41:37.149Z,101658.63
2022-10-13T02:44:05.382Z,101644.84
2022-10-13T02:46:33.451Z,101666.53
2022-10-13T02:49:02.872Z,101638.91
2022-10-13T02:51:30.711Z,101657.75
2022-10-13T02:53:58.604Z,101661.25
2022-10-13T02:56:26.504Z,101657.75
2022-10-13T02:58:54.463Z,101647.06
2022-10-13T03:01:22.509Z,101654.31
2022-10-13T03:03:50.412Z,101613.22
2022-10-13T03:06:19.660Z,101649.75
2022-10-13T03:08:47.623Z,101651.69
2022-10-13T03:11:15.664Z,101656.84
2022-10-13T03:13:43.558Z,101617.22
2022-10-13T03:16:11.597Z,101656.75
2022-10-13T03:18:39.606Z,101647.94
2022-10-13T03:21:08.273Z,101636.44
2022-10-13T03:23:37.649Z,101637.59
2022-10-13T03:26:05.727Z,101635.13
2022-10-13T03:28:33.756Z,101637.00
2022-10-13T03:31:02.612Z,101634.31
2022-10-13T03:33:30.602Z,101638.72
2022-10-13T03:36:01.393Z,101644.69
2022-10-13T03:38:29.927Z,101627.16
2022-10-13T03:40:59.672Z,101612.56
2022-10-13T03:43:27.500Z,101623.41
2022-10-13T03:45:58.866Z,101623.41
2022-10-13T03:48:27.748Z,101619.09
2022-10-13T03:50:55.792Z,101619.09
2022-10-13T03:53:24.287Z,101622.66
2022-10-13T03:55:53.489Z,101620.13
2022-10-13T03:58:24.449Z,101619.47
2022-10-13T04:00:53.775Z,101602.91
2022-10-13T04:03:22.041Z,101612.03
2022-10-13T04:05:49.874Z,101618.25
2022-10-13T04:08:18.131Z,101582.53
2022-10-13T04:10:46.120Z,101610.53
2022-10-13T04:13:13.972Z,101605.22
2022-10-13T04:15:43.436Z,101610.91
2022-10-13T04:18:12.844Z,101612.88
2022-10-13T04:20:41.504Z,101605.13
2022-10-13T04:23:09.554Z,101608.69
2022-10-13T04:25:37.844Z,101609.75
2022-10-13T04:28:06.192Z,101612.53
2022-10-13T04:30:34.543Z,101609.16
2022-10-13T04:33:03.854Z,101600.50
2022-10-13T04:35:31.957Z,101612.97
2022-10-13T04:38:00.211Z,101601.78
2022-10-13T04:40:28.235Z,101607.16
2022-10-13T04:42:56.092Z,101600.31
2022-10-13T04:45:24.115Z,101604.78
2022-10-13T04:47:52.296Z,101609.25
2022-10-13T04:50:21.774Z,101604.03
2022-10-13T04:52:49.740Z,101587.97
2022-10-13T04:55:17.904Z,101570.28
2022-10-13T04:57:45.860Z,101594.56
2022-10-13T05:00:14.932Z,101592.03
2022-10-13T05:02:42.970Z,101593.81
2022-10-13T05:05:11.473Z,101550.06
2022-10-13T05:07:41.057Z,101595.72
2022-10-13T05:10:09.681Z,101592.16
2022-10-13T05:12:37.784Z,101589.66
2022-10-13T05:15:06.385Z,101584.50
2022-10-13T05:17:35.550Z,101575.59
2022-10-13T05:20:03.846Z,101577.88
2022-10-13T05:22:32.002Z,101555.59
2022-10-13T05:25:01.205Z,101549.66
2022-10-13T05:27:29.247Z,101571.38
2022-10-13T05:29:57.478Z,101567.84
2022-10-13T05:32:25.288Z,101575.91
2022-10-13T05:34:53.134Z,101570.09
2022-10-13T05:37:22.684Z,101570.97
2022-10-13T05:39:50.652Z,101573.97
2022-10-13T05:42:20.073Z,101534.69
2022-10-13T05:44:48.384Z,101549.16
2022-10-13T05:47:16.202Z,101559.09
2022-10-13T05:49:44.038Z,101572.66
2022-10-13T05:52:14.010Z,101569.31
2022-10-13T05:54:44.470Z,101568.56
2022-10-13T05:57:15.635Z,101570.13
2022-10-13T05:59:50.681Z,101566.16
2022-10-13T06:02:21.188Z,101556.66
2022-10-13T06:04:55.703Z,101516.44
2022-10-13T06:07:24.028Z,101561.28
2022-10-13T06:09:52.082Z,101561.47
2022-10-13T06:12:20.253Z,101565.06
2022-10-13T06:14:50.034Z,101573.13
2022-10-13T06:17:17.884Z,101554.66
2022-10-13T06:19:46.217Z,101570.84
2022-10-13T06:22:14.502Z,101569.34
2022-10-13T06:24:42.372Z,101526.66
2022-10-13T06:27:10.314Z,101567.97
2022-10-13T06:29:38.436Z,101576.03
2022-10-13T06:32:07.960Z,101564.78
2022-10-13T06:34:35.814Z,101575.47
2022-10-13T06:37:04.013Z,101565.97
2022-10-13T06:39:31.825Z,101570.56
2022-10-13T06:41:59.672Z,101570.00
2022-10-13T06:44:27.865Z,101555.13
2022-10-13T06:46:55.686Z,101575.78
2022-10-13T06:49:26.064Z,101559.38
2022-10-13T06:51:54.203Z,101565.69
2022-10-13T06:54:22.301Z,101564.31
2022-10-13T06:56:50.211Z,101566.41
2022-10-13T06:59:18.272Z,101565.91
2022-10-13T07:01:46.236Z,101572.25
2022-10-13T07:04:14.269Z,101569.88
2022-10-13T07:06:43.789Z,101563.16
2022-10-13T07:09:11.623Z,101569.50
2022-10-13T07:11:39.869Z,101574.88
2022-10-13T07:14:07.901Z,101535.09
2022-10-13T07:16:36.241Z,101469.94
2022-10-13T07:19:04.242Z,101573.88
2022-10-13T07:21:32.426Z,101559.91
2022-10-13T07:24:03.121Z,101564.63
2022-10-13T07:26:32.513Z,101568.28
2022-10-13T07:29:00.831Z,101567.56
2022-10-13T07:31:29.289Z,101560.81
2022-10-13T07:33:59.543Z,101569.06
2022-10-13T07:36:28.800Z,101496.22
2022-10-13T07:38:56.581Z,101557.25
2022-10-13T07:41:25.845Z,101561.94
2022-10-13T07:43:56.589Z,101562.94
2022-10-13T07:46:25.469Z,101565.69
2022-10-13T07:48:53.470Z,101563.19
2022-10-13T07:51:23.199Z,101559.78
2022-10-13T07:53:51.217Z,101560.97
2022-10-13T07:56:19.206Z,101542.59
2022-10-13T07:58:49.109Z,101559.84
2022-10-13T08:01:17.364Z,101547.72
2022-10-13T08:03:49.808Z,101507.94
2022-10-13T08:06:19.047Z,101545.06
2022-10-13T08:08:47.022Z,101553.09
2022-10-13T08:11:17.134Z,101550.47
2022-10-13T08:13:50.157Z,101549.69
2022-10-13T08:16:18.344Z,101548.91
2022-10-13T08:18:46.732Z,101548.38
2022-10-13T08:24:06.307Z,101538.88
2022-10-13T08:26:34.306Z,101523.50
2022-10-13T08:29:20.599Z,101522.91
2022-10-13T08:34:23.397Z,101529.28
2022-10-13T08:36:53.378Z,101526.47
2022-10-13T08:39:22.338Z,101532.69
2022-10-13T08:41:51.449Z,101520.38
2022-10-13T08:45:06.233Z,101509.41
2022-10-13T08:47:22.519Z,101522.44
2022-10-13T08:49:51.225Z,101516.34
2022-10-13T08:52:22.906Z,101523.28
2022-10-13T08:54:51.523Z,101511.03
2022-10-13T08:57:19.945Z,101520.34
2022-10-13T08:59:50.110Z,101501.47
2022-10-13T09:02:25.502Z,101513.56
2022-10-13T09:04:55.011Z,101507.63
2022-10-13T09:07:26.485Z,101514.59
2022-10-13T09:09:56.389Z,101517.91
2022-10-13T09:12:25.589Z,101511.03
2022-10-13T09:15:05.341Z,101517.66
2022-10-13T09:17:34.555Z,101510.03
2022-10-13T09:20:06.024Z,101505.00
2022-10-13T09:22:36.175Z,101501.00
2022-10-13T09:25:17.257Z,101485.31
2022-10-13T09:27:47.737Z,101503.94
2022-10-13T09:30:36.267Z,101499.66
2022-10-13T09:33:16.867Z,101498.06
2022-10-13T09:35:47.063Z,101501.38
2022-10-13T09:38:17.149Z,101497.91
2022-10-13T09:40:57.051Z,101508.19
2022-10-13T09:43:31.421Z,101443.91
2022-10-13T09:46:02.721Z,101459.69
2022-10-13T09:48:34.157Z,101457.03
2022-10-13T09:51:02.837Z,101500.31
2022-10-13T09:53:34.902Z,101501.69
2022-10-13T09:56:11.385Z,101449.41
2022-10-13T10:01:29.330Z,101503.06
2022-10-13T10:03:58.866Z,101502.94
2022-10-13T10:06:27.951Z,101493.00
2022-10-13T10:09:04.513Z,101498.22
2022-10-13T10:11:36.317Z,101488.91
2022-10-13T10:14:17.093Z,101484.72
2022-10-13T10:16:52.332Z,101482.16
2022-10-13T10:19:23.775Z,101486.50
2022-10-13T10:22:04.151Z,101486.22
2022-10-13T10:24:39.907Z,101484.94
2022-10-13T10:27:16.084Z,101482.81
2022-10-13T10:29:52.564Z,101461.69
2022-10-13T10:32:30.197Z,101468.91
2022-10-13T10:35:02.726Z,101474.13
2022-10-13T10:37:45.091Z,101453.88
2022-10-13T10:40:26.084Z,101463.16
2022-10-13T10:43:36.658Z,101454.66
2022-10-13T10:46:13.538Z,101451.41
2022-10-13T10:48:46.956Z,101449.66
2022-10-13T10:51:16.007Z,101443.75
2022-10-13T10:53:58.962Z,101450.75
2022-10-13T10:56:34.859Z,101433.59
2022-10-13T10:59:23.485Z,101454.97
2022-10-13T11:02:04.405Z,101441.81
2022-10-13T11:04:40.353Z,101455.75
2022-10-13T11:07:13.049Z,101451.13
2022-10-13T11:10:20.945Z,101456.31
2022-10-13T11:13:22.413Z,101420.09
2022-10-13T11:15:50.715Z,101451.28
2022-10-13T11:18:54.121Z,101440.91
2022-10-13T11:21:23.838Z,101436.50
2022-10-13T11:23:52.094Z,101438.03
2022-10-13T11:26:32.253Z,101429.13
2022-10-13T11:29:00.947Z,101402.06
2022-10-13T11:31:49.396Z,101428.03
2022-10-13T11:34:31.497Z,101316.06
2022-10-13T11:37:03.180Z,101427.22
2022-10-13T11:40:03.971Z,101434.06
2022-10-13T11:42:50.895Z,101428.53
2022-10-13T11:45:37.087Z,101416.09
2022-10-13T11:48:38.552Z,101424.88
2022-10-13T11:51:20.952Z,101423.03
2022-10-13T11:53:55.938Z,101415.03
2022-10-13T11:56:39.416Z,101412.38
2022-10-13T11:59:21.775Z,101408.19
2022-10-13T12:01:53.714Z,101411.91
2022-10-13T12:04:24.095Z,101414.28
2022-10-13T12:06:58.339Z,101400.75
2022-10-13T12:09:28.826Z,101413.00
2022-10-13T12:11:59.476Z,101396.94
2022-10-13T12:14:33.227Z,101393.47
2022-10-13T12:17:02.738Z,101382.03
2022-10-13T12:19:32.489Z,101400.00
2022-10-13T12:22:02.114Z,101378.66
2022-10-13T12:24:32.185Z,101379.56
2022-10-13T12:27:00.265Z,101400.91
2022-10-13T12:29:34.826Z,101360.78
2022-10-13T12:32:06.229Z,101388.53
2022-10-13T12:34:36.585Z,101380.41
2022-10-13T12:37:12.886Z,101373.91
2022-10-13T12:39:42.443Z,101385.31
2022-10-13T12:42:14.520Z,101378.34
2022-10-13T12:44:42.710Z,101377.44
2022-10-13T12:47:38.566Z,101377.41
2022-10-13T12:50:23.461Z,101369.53
2022-10-13T12:52:53.688Z,101374.66
2022-10-13T12:55:24.464Z,101372.03
2022-10-13T12:57:53.173Z,101347.91
2022-10-13T13:00:23.590Z,101362.38
2022-10-13T13:02:54.104Z,101366.56
2022-10-13T13:05:33.651Z,101346.97
2022-10-13T13:08:02.847Z,101357.31
2022-10-13T13:10:32.264Z,101340.41
2022-10-13T13:13:15.449Z,101291.59
2022-10-13T13:15:43.396Z,101366.16
2022-10-13T13:18:32.170Z,101365.34
2022-10-13T13:21:01.971Z,101355.69
2022-10-13T13:23:34.336Z,101359.25
2022-10-13T13:26:08.044Z,101363.56
2022-10-13T13:28:36.423Z,101343.97
2022-10-13T13:31:04.705Z,101358.22
2022-10-13T13:33:32.532Z,101356.53
2022-10-13T13:36:00.675Z,101352.16
2022-10-13T13:38:28.600Z,101346.91
2022-10-13T13:41:00.094Z,101329.88
2022-10-13T13:43:32.567Z,101359.88
2022-10-13T13:46:00.436Z,101357.91
2022-10-13T13:48:28.298Z,101348.00
2022-10-13T13:50:56.338Z,101328.47
2022-10-13T13:53:24.226Z,101349.00
2022-10-13T13:55:52.334Z,101350.44
2022-10-13T13:58:20.925Z,101351.13
2022-10-13T14:00:50.243Z,101288.88
2022-10-13T14:03:19.492Z,101340.50
2022-10-13T14:05:48.089Z,101326.16
2022-10-13T14:08:15.935Z,101346.53
2022-10-13T14:10:43.781Z,101323.50
2022-10-13T14:13:11.766Z,101335.81
2022-10-13T14:15:39.591Z,101331.34
2022-10-13T14:18:08.818Z,101274.25
2022-10-13T14:20:36.949Z,101225.31
2022-10-13T14:23:04.758Z,101328.59
2022-10-13T14:25:33.359Z,101331.19
2022-10-13T14:28:01.399Z,101328.59
2022-10-13T14:30:29.336Z,101318.06
2022-10-13T14:32:57.296Z,101326.09
2022-10-13T14:35:26.825Z,101325.28
2022-10-13T14:37:54.852Z,101248.72
2022-10-13T14:40:22.784Z,101319.22
2022-10-13T14:42:50.987Z,101328.13
2022-10-13T14:45:19.158Z,101285.44
2022-10-13T14:47:47.037Z,101315.81
2022-10-13T14:50:15.141Z,101318.47
2022-10-13T14:52:44.458Z,101269.50
2022-10-13T14:55:12.345Z,101320.13
2022-10-13T14:57:40.496Z,101310.38
2022-10-13T15:00:10.880Z,101296.91
2022-10-13T15:02:38.704Z,101294.94
2022-10-13T15:05:07.908Z,101313.63
2022-10-13T15:07:40.212Z,101307.31
2022-10-13T15:10:11.010Z,101307.22
2022-10-13T15:12:38.954Z,101298.31
2022-10-13T15:15:07.524Z,101310.56
2022-10-13T15:17:36.963Z,101299.13
2022-10-13T15:20:05.999Z,101298.22
2022-10-13T15:22:33.877Z,101304.34
2022-10-13T15:25:02.139Z,101302.50
2022-10-13T15:27:31.479Z,101298.06
2022-10-13T15:29:59.339Z,101291.75
2022-10-13T15:32:27.899Z,101292.72
2022-10-13T15:34:56.120Z,101297.03
2022-10-13T15:37:23.992Z,101296.09
2022-10-13T15:39:56.861Z,101293.34
2022-10-13T15:42:25.448Z,101297.72
2022-10-13T15:45:09.393Z,101279.78
2022-10-13T15:47:38.410Z,101287.53
2022-10-13T15:50:06.978Z,101303.53
2022-10-13T15:52:38.898Z,101299.88
2022-10-13T15:55:07.360Z,101283.69
2022-10-13T15:57:35.230Z,101288.97
2022-10-13T16:00:06.365Z,101301.38
2022-10-13T16:02:34.393Z,101301.34
2022-10-13T16:05:05.074Z,101297.72
2022-10-13T16:07:33.382Z,101295.06
2022-10-13T16:10:01.535Z,101291.53
2022-10-13T16:12:29.952Z,101292.38
2022-10-13T16:14:57.989Z,101294.13
2022-10-13T16:17:27.449Z,101289.75
2022-10-13T16:19:55.367Z,101293.22
2022-10-13T16:22:23.460Z,101291.50
2022-10-13T16:24:51.828Z,101298.50
2022-10-13T16:27:19.720Z,101291.44
2022-10-13T16:29:47.757Z,101286.06
2022-10-13T16:32:15.783Z,101296.66
2022-10-13T16:34:45.043Z,101280.75
2022-10-13T16:37:12.937Z,101294.03
2022-10-13T16:39:43.820Z,101276.44
2022-10-13T16:42:13.356Z,101262.09
2022-10-13T16:44:41.321Z,101293.00
2022-10-13T16:47:09.191Z,101283.34
2022-10-13T16:49:37.336Z,101281.56
2022-10-13T16:52:06.645Z,101278.75
2022-10-13T16:54:34.622Z,101283.28
2022-10-13T16:57:02.521Z,101286.78
2022-10-13T16:59:30.910Z,101273.28
2022-10-13T17:01:59.472Z,101285.84
2022-10-13T17:04:27.530Z,101280.56
2022-10-13T17:06:55.485Z,101271.81
2022-10-13T17:09:24.779Z,101285.78
2022-10-13T17:11:52.616Z,101239.41
2022-10-13T17:14:20.730Z,101276.06
2022-10-13T17:16:48.713Z,101278.72
2022-10-13T17:19:16.569Z,101278.66
2022-10-13T17:21:44.727Z,101268.06
2022-10-13T17:24:12.841Z,101271.53
2022-10-13T17:26:42.087Z,101268.91
2022-10-13T17:29:10.050Z,101277.59
2022-10-13T17:31:39.111Z,101270.50
2022-10-13T17:34:09.255Z,101259.88
2022-10-13T17:36:37.874Z,101265.22
2022-10-13T17:39:07.831Z,101266.06
2022-10-13T17:41:36.366Z,101265.13
2022-10-13T17:44:06.042Z,101266.06
2022-10-13T17:46:37.563Z,101262.41
2022-10-13T17:49:06.830Z,101273.00
2022-10-13T17:51:34.800Z,101265.13
2022-10-13T17:54:02.830Z,101265.16
2022-10-13T17:56:31.786Z,101244.75
2022-10-13T17:59:00.634Z,101270.41
2022-10-13T18:01:32.755Z,101257.28
2022-10-13T18:04:04.895Z,101245.63
2022-10-13T18:06:38.479Z,101237.41
2022-10-13T18:09:07.910Z,101261.59
2022-10-13T18:11:36.148Z,101259.78
2022-10-13T18:14:04.541Z,101249.84
2022-10-13T18:16:34.437Z,101259.78
2022-10-13T18:19:02.481Z,101252.66
2022-10-13T18:21:30.499Z,101233.88
2022-10-13T18:24:00.533Z,101260.72
2022-10-13T18:26:32.003Z,101259.88
2022-10-13T18:29:00.298Z,101143.97
2022-10-13T18:31:29.486Z,101256.25
2022-10-13T18:34:00.400Z,101254.47
2022-10-13T18:36:30.711Z,101239.22
2022-10-13T18:39:02.863Z,101177.03
2022-10-13T18:41:31.935Z,101248.25
2022-10-13T18:43:59.852Z,101250.88
2022-10-13T18:46:27.923Z,101242.88
2022-10-13T18:48:57.270Z,101239.31
2022-10-13T18:51:29.959Z,101233.84
2022-10-13T18:54:00.402Z,101188.38
2022-10-13T18:56:30.074Z,101244.44
2022-10-13T18:59:00.159Z,101227.50
2022-10-13T19:01:30.562Z,101232.06
2022-10-13T19:03:58.510Z,101213.31
2022-10-13T19:06:32.260Z,101189.34
2022-10-13T19:09:01.762Z,101236.38
2022-10-13T19:11:30.721Z,101237.25
2022-10-13T19:13:59.844Z,101238.06
2022-10-13T19:16:29.929Z,101251.28
2022-10-13T19:18:58.044Z,101243.47
2022-10-13T19:21:27.702Z,101244.31
2022-10-13T19:23:55.604Z,101239.06
2022-10-13T19:26:25.521Z,101233.75
2022-10-13T19:28:55.637Z,101232.00
2022-10-13T19:31:25.980Z,101201.72
2022-10-13T19:33:54.366Z,101232.00
2022-10-13T19:36:24.822Z,101176.78
2022-10-13T19:38:54.907Z,101219.63
2022-10-13T19:41:23.194Z,101229.19
2022-10-13T19:43:51.368Z,101225.72
2022-10-13T19:46:19.529Z,101221.31
2022-10-13T19:48:47.832Z,101217.66
2022-10-13T19:51:15.838Z,101218.66
2022-10-13T19:53:44.159Z,101188.47
2022-10-13T19:56:24.054Z,101209.78
2022-10-13T19:58:53.021Z,101208.06
2022-10-13T20:01:21.739Z,101212.41
2022-10-13T20:03:50.218Z,101208.00
2022-10-13T20:06:19.312Z,101200.03
2022-10-13T20:08:47.380Z,101202.63
2022-10-13T20:11:23.068Z,101200.78
2022-10-13T20:13:54.089Z,101196.38
2022-10-13T20:16:24.343Z,101192.81
2022-10-13T20:18:53.816Z,101200.69
2022-10-13T20:21:21.936Z,101190.94
2022-10-13T20:23:50.362Z,101193.56
2022-10-13T20:26:19.016Z,101166.06
2022-10-13T20:28:48.387Z,101189.22
2022-10-13T20:31:20.499Z,101188.38
2022-10-13T20:33:49.702Z,101183.97
2022-10-13T20:36:19.294Z,101187.47
2022-10-13T20:38:48.917Z,101175.19
2022-10-13T20:41:18.610Z,101184.09
2022-10-13T20:43:46.703Z,101114.22
2022-10-13T20:46:16.190Z,101184.16
2022-10-13T20:51:33.885Z,101187.66
2022-10-13T20:54:01.774Z,101178.94
2022-10-13T20:56:29.872Z,101182.38
2022-10-13T20:58:57.918Z,101182.41
2022-10-13T21:01:25.748Z,101165.59
2022-10-13T21:03:55.832Z,101183.25
2022-10-13T21:06:25.509Z,101177.97
2022-10-13T21:08:53.709Z,101173.59
2022-10-13T21:11:23.522Z,101184.09
2022-10-13T21:13:52.389Z,101184.09
2022-10-13T21:16:23.041Z,101175.28
2022-10-13T21:18:52.829Z,101177.13
2022-10-13T21:21:24.345Z,101180.72
2022-10-13T21:23:53.205Z,101181.56
2022-10-13T21:26:22.293Z,101163.72
2022-10-13T21:28:51.405Z,101169.06
2022-10-13T21:31:21.514Z,101175.34
2022-10-13T21:33:50.103Z,101174.34
2022-10-13T21:36:20.305Z,101181.47
2022-10-13T21:38:52.908Z,101178.84
2022-10-13T21:41:21.355Z,101179.69
2022-10-13T21:43:50.379Z,101151.09
2022-10-13T21:46:19.600Z,101132.50
2022-10-13T21:48:48.435Z,101177.78
2022-10-13T21:51:19.621Z,101164.41
2022-10-13T21:53:51.404Z,101174.16
2022-10-13T21:56:19.951Z,101181.16
2022-10-13T21:58:49.124Z,101174.97
2022-10-13T22:01:18.081Z,101168.72
2022-10-13T22:03:47.128Z,101173.13
2022-10-13T22:06:19.142Z,101140.28
2022-10-13T22:08:48.625Z,101173.94
2022-10-13T22:11:18.946Z,101157.28
2022-10-13T22:13:47.132Z,101165.06
2022-10-13T22:16:17.434Z,101149.13
2022-10-13T22:18:45.805Z,101153.53
2022-10-13T22:21:16.233Z,101167.63
2022-10-13T22:23:44.534Z,101164.81
2022-10-13T22:26:12.832Z,101121.38
2022-10-13T22:28:42.663Z,101106.16
2022-10-13T22:31:12.986Z,101153.19
2022-10-13T22:33:42.849Z,101146.06
2022-10-13T22:36:12.085Z,101116.53
2022-10-13T22:38:40.180Z,101145.88
2022-10-13T22:41:09.422Z,101087.91
2022-10-13T22:43:37.914Z,101136.81
2022-10-13T22:46:07.868Z,101110.94
2022-10-13T22:48:40.768Z,101140.28
2022-10-13T22:51:09.335Z,101142.75
2022-10-13T22:53:37.480Z,101098.25
2022-10-13T22:56:07.459Z,101122.28
2022-10-13T22:58:35.736Z,101135.53
2022-10-13T23:01:09.709Z,101133.69
2022-10-13T23:03:38.246Z,101131.88
2022-10-13T23:06:07.464Z,101056.22
2022-10-13T23:08:36.001Z,101126.47
2022-10-13T23:11:04.203Z,101103.06
2022-10-13T23:13:32.146Z,101121.94
2022-10-13T23:16:04.141Z,101097.88
2022-10-13T23:18:33.599Z,101100.63
2022-10-13T23:21:04.689Z,101004.44
2022-10-13T23:23:32.896Z,101110.44
2022-10-13T23:26:04.097Z,101112.25
2022-10-13T23:28:32.467Z,101050.72
2022-10-13T23:31:01.553Z,101110.44
2022-10-13T23:33:29.824Z,101112.16
2022-10-13T23:36:00.980Z,101104.31
2022-10-13T23:38:30.565Z,101104.31
2022-10-13T23:41:04.389Z,101109.53
2022-10-13T23:43:32.465Z,101084.66
2022-10-13T23:46:01.033Z,101054.50
2022-10-13T23:48:29.488Z,101105.19
2022-10-13T23:50:59.113Z,101103.50
2022-10-13T23:53:26.918Z,101100.00
2022-10-13T23:55:54.942Z,101090.41
2022-10-13T23:58:22.918Z,101089.53
